createdAt,value
2022-11-06T00:01:52.286Z,3.22
2022-11-06T00:06:57.043Z,3.60
2022-11-06T00:12:00.349Z,3.90
2022-11-06T00:17:03.496Z,4.22
2022-11-06T00:22:07.865Z,3.03
2022-11-06T00:27:10.952Z,4.63
2022-11-06T00:32:14.181Z,3.90
2022-11-06T00:37:18.819Z,3.97
2022-11-06T00:42:22.136Z,3.85
2022-11-06T00:47:25.464Z,3.72
2022-11-06T00:52:30.927Z,3.78
2022-11-06T00:57:34.217Z,3.50
2022-11-06T01:02:38.330Z,4.05
2022-11-06T01:07:43.295Z,4.57
2022-11-06T01:12:46.443Z,3.43
2022-11-06T01:17:49.499Z,4.88
2022-11-06T01:22:54.025Z,4.10
2022-11-06T01:27:57.134Z,4.67
2022-11-06T01:33:00.164Z,4.70
2022-11-06T01:38:04.593Z,4.32
2022-11-06T01:43:14.951Z,3.92
2022-11-06T01:48:23.199Z,4.18
2022-11-06T01:53:27.884Z,4.43
2022-11-06T01:58:34.846Z,4.20
2022-11-06T02:03:38.980Z,4.25
2022-11-06T02:08:43.531Z,5.22
2022-11-06T02:13:57.835Z,5.20
2022-11-06T02:19:17.138Z,4.95
2022-11-06T02:24:39.136Z,5.28
2022-11-06T02:29:49.672Z,4.57
2022-11-06T02:34:55.211Z,5.97
2022-11-06T02:40:02.511Z,5.45
2022-11-06T02:45:09.551Z,4.72
2022-11-06T02:50:17.299Z,5.70
2022-11-06T02:55:26.813Z,6.18
2022-11-06T03:00:33.942Z,5.80
2022-11-06T03:05:41.482Z,4.50
2022-11-06T03:10:54.442Z,5.53
2022-11-06T03:16:05.494Z,5.07
2022-11-06T03:21:19.725Z,5.35
2022-11-06T03:26:30.724Z,5.72
2022-11-06T03:31:38.534Z,6.63
2022-11-06T03:36:44.772Z,5.68
2022-11-06T03:41:53.690Z,6.75
2022-11-06T03:47:02.782Z,5.75
2022-11-06T03:52:11.518Z,4.90
2022-11-06T03:57:21.366Z,5.80
2022-11-06T04:02:30.479Z,5.93
2022-11-06T04:07:36.682Z,6.22
2022-11-06T04:13:00.747Z,5.38
2022-11-06T04:18:12.561Z,7.03
2022-11-06T04:23:22.143Z,5.10
2022-11-06T04:28:34.827Z,5.45
2022-11-06T04:33:49.561Z,5.03
2022-11-06T04:39:05.171Z,5.82
2022-11-06T04:44:14.012Z,6.85
2022-11-06T04:49:20.311Z,6.43
2022-11-06T04:54:24.362Z,6.05
2022-11-06T04:59:28.227Z,5.78
2022-11-06T05:04:33.101Z,5.35
2022-11-06T05:09:36.165Z,5.20
2022-11-06T05:14:39.335Z,5.28
2022-11-06T05:19:44.332Z,5.70
2022-11-06T05:24:47.357Z,5.90
2022-11-06T05:29:50.589Z,5.72
2022-11-06T05:34:55.140Z,5.20
2022-11-06T05:39:58.312Z,6.50
2022-11-06T05:45:01.356Z,5.70
2022-11-06T05:50:06.769Z,5.00
2022-11-06T05:55:14.673Z,5.63
2022-11-06T06:00:18.971Z,5.75
2022-11-06T06:05:23.527Z,6.05
2022-11-06T06:10:26.741Z,5.20
2022-11-06T06:15:29.833Z,6.50
2022-11-06T06:20:35.022Z,5.25
2022-11-06T06:25:38.085Z,5.53
2022-11-06T06:30:41.068Z,5.55
2022-11-06T06:35:45.426Z,6.22
2022-11-06T06:40:48.603Z,6.80
2022-11-06T06:45:51.671Z,7.43
2022-11-06T06:50:58.689Z,7.25
2022-11-06T06:56:02.084Z,6.65
2022-11-06T07:01:06.729Z,8.77
2022-11-06T07:06:12.016Z,7.97
2022-11-06T07:11:15.139Z,7.55
2022-11-06T07:16:18.567Z,9.10
2022-11-06T07:21:23.000Z,8.30
2022-11-06T07:26:26.448Z,8.43
2022-11-06T07:31:31.227Z,6.95
2022-11-06T07:36:36.387Z,8.00
2022-11-06T07:46:42.756Z,6.95
2022-11-06T07:51:47.428Z,8.35
2022-11-06T07:56:50.550Z,7.97
2022-11-06T08:01:53.929Z,8.50
2022-11-06T08:06:58.572Z,7.22
2022-11-06T08:12:01.890Z,8.20
2022-11-06T08:17:05.055Z,7.40
2022-11-06T08:22:09.693Z,9.15
2022-11-06T08:27:12.867Z,10.03
2022-11-06T08:32:16.306Z,7.85
2022-11-06T08:37:20.980Z,7.18
2022-11-06T08:42:24.413Z,6.10
2022-11-06T08:47:27.491Z,5.03
2022-11-06T08:52:34.203Z,5.25
2022-11-06T08:57:37.544Z,4.78
2022-11-06T09:02:41.034Z,4.78
2022-11-06T09:07:45.381Z,4.45
2022-11-06T09:12:48.650Z,4.60
2022-11-06T09:17:52.577Z,3.55
2022-11-06T09:23:01.097Z,4.28
2022-11-06T09:28:04.670Z,3.70
2022-11-06T09:33:13.299Z,4.00
2022-11-06T09:38:19.126Z,4.15
2022-11-06T09:49:19.984Z,3.85
2022-11-06T09:54:28.701Z,4.13
2022-11-06T09:59:36.220Z,4.03
2022-11-06T10:04:49.532Z,3.90
2022-11-06T10:09:54.140Z,3.58
2022-11-06T10:15:07.487Z,4.85
2022-11-06T10:20:18.102Z,3.88
2022-11-06T10:25:35.314Z,4.07
2022-11-06T10:30:46.384Z,3.85
2022-11-06T10:35:53.527Z,3.60
2022-11-06T10:40:58.211Z,2.70
2022-11-06T10:46:11.738Z,3.23
2022-11-06T10:51:42.594Z,3.00
2022-11-06T10:56:58.704Z,3.22
2022-11-06T11:02:03.357Z,5.50
2022-11-06T11:07:18.854Z,4.28
2022-11-06T11:12:29.365Z,4.13
2022-11-06T11:17:32.463Z,3.13
2022-11-06T11:22:35.932Z,2.80
2022-11-06T11:27:45.772Z,3.00
2022-11-06T11:32:50.383Z,3.22
2022-11-06T11:38:06.190Z,2.70
2022-11-06T11:43:27.797Z,3.78
2022-11-06T11:48:43.494Z,2.67
2022-11-06T11:53:46.865Z,3.15
2022-11-06T11:58:54.204Z,3.08
2022-11-06T12:03:57.650Z,2.70
2022-11-06T12:09:00.896Z,2.78
2022-11-06T12:14:29.515Z,2.40
2022-11-06T12:19:34.805Z,3.17
2022-11-06T12:29:48.761Z,2.85
2022-11-06T12:35:01.583Z,2.85
2022-11-06T12:40:18.401Z,2.63
2022-11-06T12:45:38.519Z,2.40
2022-11-06T12:50:45.983Z,2.75
2022-11-06T12:55:55.839Z,2.40
2022-11-06T13:01:08.082Z,3.28
2022-11-06T13:06:16.241Z,2.13
2022-11-06T13:11:31.862Z,2.28
2022-11-06T13:16:40.909Z,2.10
2022-11-06T13:22:07.964Z,2.28
2022-11-06T13:27:18.587Z,2.20
2022-11-06T13:32:25.749Z,2.78
2022-11-06T13:37:38.339Z,2.15
2022-11-06T13:42:46.934Z,2.22
2022-11-06T13:48:06.483Z,2.00
2022-11-06T13:53:18.819Z,2.15
2022-11-06T13:58:33.126Z,2.53
2022-11-06T14:04:04.666Z,2.40
2022-11-06T14:09:14.137Z,2.08
2022-11-06T14:14:25.281Z,2.00
2022-11-06T14:19:30.479Z,2.10
2022-11-06T14:24:34.279Z,1.92
2022-11-06T14:29:56.322Z,2.45
2022-11-06T14:35:51.134Z,1.85
2022-11-06T14:40:56.131Z,2.30
2022-11-06T14:46:02.465Z,4.38
2022-11-06T14:51:07.993Z,2.53
2022-11-06T14:56:21.418Z,2.47
2022-11-06T15:01:29.230Z,2.35
2022-11-06T15:06:43.361Z,2.38
2022-11-06T15:11:57.046Z,2.40
2022-11-06T15:17:04.617Z,2.67
2022-11-06T15:22:15.575Z,2.58
2022-11-06T15:27:22.036Z,2.22
2022-11-06T15:32:29.251Z,2.47
2022-11-06T15:37:37.577Z,2.60
2022-11-06T15:42:42.068Z,17.27
2022-11-06T15:47:54.317Z,6.63
2022-11-06T15:53:17.417Z,6.55
2022-11-06T15:58:31.177Z,6.03
2022-11-06T16:03:47.382Z,4.47
2022-11-06T16:08:51.477Z,5.78
2022-11-06T16:13:56.232Z,3.15
2022-11-06T16:18:59.700Z,3.85
2022-11-06T16:24:09.754Z,4.03
2022-11-06T16:29:19.300Z,2.97
2022-11-06T16:34:35.221Z,2.45
2022-11-06T16:39:50.490Z,3.92
2022-11-06T16:45:16.756Z,5.63
2022-11-06T16:50:42.931Z,4.97
2022-11-06T16:55:53.609Z,3.92
2022-11-06T17:01:01.478Z,4.50
2022-11-06T17:06:05.089Z,4.55
2022-11-06T17:11:21.716Z,3.45
2022-11-06T17:16:28.024Z,3.03
2022-11-06T17:21:31.028Z,3.05
2022-11-06T17:26:34.571Z,3.80
2022-11-06T17:31:39.561Z,4.22
2022-11-06T17:36:43.250Z,4.20
2022-11-06T17:41:46.308Z,4.03
2022-11-06T17:46:50.939Z,7.97
2022-11-06T17:51:58.269Z,3.70
2022-11-06T17:57:03.719Z,3.53
2022-11-06T18:07:14.743Z,3.20
2022-11-06T18:12:17.928Z,2.85
2022-11-06T18:17:22.751Z,2.90
2022-11-06T18:22:25.863Z,3.93
2022-11-06T18:27:29.159Z,3.78
2022-11-06T18:32:33.686Z,4.53
2022-11-06T18:37:36.925Z,4.97
2022-11-06T18:42:40.152Z,4.75
2022-11-06T18:47:44.465Z,4.15
2022-11-06T18:52:59.014Z,4.15
2022-11-06T18:58:02.615Z,4.18
2022-11-06T19:03:07.162Z,3.75
2022-11-06T19:08:10.370Z,4.90
2022-11-06T19:13:13.464Z,4.10
2022-11-06T19:18:18.059Z,4.15
2022-11-06T19:23:21.191Z,4.17
2022-11-06T19:28:24.351Z,4.35
2022-11-06T19:33:28.934Z,3.83
2022-11-06T19:38:32.057Z,4.13
2022-11-06T19:43:37.060Z,4.00
2022-11-06T19:48:41.548Z,4.60
2022-11-06T19:53:44.673Z,4.67
2022-11-06T19:58:48.609Z,4.50
2022-11-06T20:03:53.005Z,4.57
2022-11-06T20:08:56.150Z,5.40
2022-11-06T20:13:59.742Z,6.10
2022-11-06T20:19:04.618Z,5.63
2022-11-06T20:24:07.933Z,5.07
2022-11-06T20:29:11.064Z,4.95
2022-11-06T20:34:15.547Z,5.70
2022-11-06T20:39:18.651Z,4.53
2022-11-06T20:44:21.771Z,6.30
2022-11-06T20:49:26.962Z,5.65
2022-11-06T20:54:30.274Z,5.93
2022-11-06T20:59:33.544Z,6.38
2022-11-06T21:04:38.129Z,5.47
2022-11-06T21:09:41.208Z,5.87
2022-11-06T21:14:44.262Z,6.22
2022-11-06T21:19:48.871Z,6.07
2022-11-06T21:24:51.988Z,6.03
2022-11-06T21:29:56.019Z,7.20
2022-11-06T21:35:00.532Z,6.68
2022-11-06T21:40:04.346Z,6.20
2022-11-06T21:45:12.343Z,6.57
2022-11-06T21:50:28.269Z,6.10
2022-11-06T21:55:53.797Z,7.40
2022-11-06T22:00:57.171Z,6.47
2022-11-06T22:06:06.210Z,7.65
2022-11-06T22:11:13.659Z,6.97
2022-11-06T22:16:18.709Z,6.47
2022-11-06T22:21:25.308Z,8.77
2022-11-06T22:26:29.864Z,8.10
2022-11-06T22:31:33.429Z,7.10
2022-11-06T22:36:38.367Z,7.32
2022-11-06T22:41:41.731Z,6.95
2022-11-06T22:46:44.996Z,7.35
2022-11-06T22:51:49.594Z,8.25
2022-11-06T22:56:52.875Z,7.90
2022-11-06T23:01:56.096Z,7.30
2022-11-06T23:07:00.726Z,6.75
2022-11-06T23:12:04.229Z,7.87
2022-11-06T23:17:07.355Z,7.32
2022-11-06T23:22:30.261Z,7.20
2022-11-06T23:27:33.202Z,6.50
2022-11-06T23:32:38.412Z,6.63
2022-11-06T23:37:43.020Z,7.28
2022-11-06T23:42:48.674Z,8.00
2022-11-06T23:47:51.774Z,7.72
2022-11-06T23:52:56.273Z,7.45
2022-11-06T23:57:59.594Z,7.10
